Weather at Pista do Monte do Pombo

Public forecast

Using degrees Celsius for public forecast. Weather courtesy of forecast.io.

Closest aviation weather report (METAR) to Pista do Monte do Pombo

Report is more than 2 hours old.

Closest report is Badajoz Airport, 56.8 nm (105.2 km) SE.

2024/06/13 19:30 (retrieved 4 hours ago)

LEBZ 131930Z 27006KT CAVOK 27/08 Q1017

Closest aviation forecast (TAF) to Pista do Monte do Pombo

Closest forecast is Badajoz Airport, 56.8 nm (105.2 km) SE.

2024/06/13 21:27 (retrieved 2 hours ago)

TAF LEBZ 132000Z 1321/1421 29008KT CAVOK TX31/1415Z TN11/1405Z